Pazardzhik, Bulgaria
Current Conditions -  °F | °C
As of 5:00 AM on Friday 19 Dec 2014 (Local Time) from LBPD Reporting Station
Few Clouds Few Clouds  
Wind Chill: 43°   Ceiling: Unl
Heat Index: 43°   Visibility: 6mi
Dew Point: 37°   Wind: 2mph
Humidity: 81%   Direction: 280°W
Pressure: 30.15"   Gusts: NA
Location:  42.2°N, 24.34°E
Report Text: LBPD 190200Z 28002KT 9999 FEW079 06/03 Q1021 NOSIG
Loading
Personal Weather Stations






























Interactive Weather Map New forecast layout! Learn more

10-Day Weather Forecast

Advertisements
Track Severe Weather on mobile